createdAt,value
2019-06-27T00:00:29.519Z,1008.9
2019-06-27T00:01:30.998Z,1008.9
2019-06-27T00:02:32.227Z,1008.9
2019-06-27T00:03:33.589Z,1008.9
2019-06-27T00:04:34.952Z,1008.9
2019-06-27T00:05:36.315Z,1008.9
2019-06-27T00:06:37.674Z,1008.9
2019-06-27T00:07:39.043Z,1008.9
2019-06-27T00:08:40.462Z,1008.9
2019-06-27T00:09:41.814Z,1009.0
2019-06-27T00:10:43.179Z,1009.0
2019-06-27T00:11:44.545Z,1009.0
2019-06-27T00:12:45.899Z,1009.0
2019-06-27T00:13:47.269Z,1009.0
2019-06-27T00:14:48.633Z,1009.0
2019-06-27T00:15:50.015Z,1009.0
2019-06-27T00:16:51.390Z,1009.0
2019-06-27T00:17:52.750Z,1009.1
2019-06-27T00:18:54.114Z,1009.1
2019-06-27T00:19:55.478Z,1009.1
2019-06-27T00:20:56.848Z,1009.1
2019-06-27T00:21:58.207Z,1009.1
2019-06-27T00:22:59.574Z,1009.1
2019-06-27T00:24:00.948Z,1009.1
2019-06-27T00:25:02.313Z,1009.0
2019-06-27T00:26:03.674Z,1009.0
2019-06-27T00:27:05.035Z,1009.1
2019-06-27T00:28:06.394Z,1009.1
2019-06-27T00:29:07.774Z,1009.1
2019-06-27T00:30:09.129Z,1009.1
2019-06-27T00:31:10.504Z,1009.1
2019-06-27T00:32:11.870Z,1009.1
2019-06-27T00:33:13.229Z,1009.1
2019-06-27T00:34:14.590Z,1009.1
2019-06-27T00:35:15.950Z,1009.2
2019-06-27T00:36:17.317Z,1009.2
2019-06-27T00:37:18.715Z,1009.2
2019-06-27T00:38:20.081Z,1009.2
2019-06-27T00:39:21.450Z,1009.2
2019-06-27T00:40:22.803Z,1009.2
2019-06-27T00:41:24.192Z,1009.2
2019-06-27T00:42:25.556Z,1009.2
2019-06-27T00:43:26.914Z,1009.2
2019-06-27T00:44:28.287Z,1009.2
2019-06-27T00:45:29.656Z,1009.2
2019-06-27T00:46:31.028Z,1009.2
2019-06-27T00:47:32.375Z,1009.2
2019-06-27T00:48:33.741Z,1009.2
2019-06-27T00:49:35.104Z,1009.1
2019-06-27T00:50:36.470Z,1009.1
2019-06-27T00:51:37.856Z,1009.1
2019-06-27T00:52:39.204Z,1009.2
2019-06-27T00:53:40.571Z,1009.1
2019-06-27T00:54:41.945Z,1009.2
2019-06-27T00:55:43.331Z,1009.2
2019-06-27T00:56:44.730Z,1009.2
2019-06-27T00:57:46.084Z,1009.2
2019-06-27T00:58:47.451Z,1009.3
2019-06-27T00:59:48.870Z,1009.3
2019-06-27T01:00:50.231Z,1009.3
2019-06-27T01:01:51.579Z,1009.3
2019-06-27T01:02:52.940Z,1009.3
2019-06-27T01:03:54.315Z,1009.3
2019-06-27T01:04:55.686Z,1009.3
2019-06-27T01:05:57.040Z,1009.3
2019-06-27T01:06:58.457Z,1009.3
2019-06-27T01:07:59.746Z,1009.4
2019-06-27T01:09:01.105Z,1009.3
2019-06-27T01:10:02.469Z,1009.4
2019-06-27T01:11:03.835Z,1009.4
2019-06-27T01:12:05.200Z,1009.4
2019-06-27T01:13:06.564Z,1009.4
2019-06-27T01:14:07.931Z,1009.4
2019-06-27T01:15:09.303Z,1009.4
2019-06-27T01:16:10.649Z,1009.4
2019-06-27T01:17:12.020Z,1009.4
2019-06-27T01:18:13.391Z,1009.3
2019-06-27T01:19:14.781Z,1009.4
2019-06-27T01:20:16.169Z,1009.4
2019-06-27T01:21:17.525Z,1009.4
2019-06-27T01:22:18.900Z,1009.4
2019-06-27T01:23:20.257Z,1009.4
2019-06-27T01:24:21.629Z,1009.4
2019-06-27T01:25:22.991Z,1009.4
2019-06-27T01:26:24.351Z,1009.4
2019-06-27T01:27:30.010Z,1009.4
2019-06-27T01:28:27.035Z,1009.4
2019-06-27T01:29:28.396Z,1009.4
2019-06-27T01:30:29.768Z,1009.4
2019-06-27T01:31:31.136Z,1009.4
2019-06-27T01:32:32.495Z,1009.4
2019-06-27T01:33:33.855Z,1009.4
2019-06-27T01:34:35.257Z,1009.4
2019-06-27T01:35:36.625Z,1009.4
2019-06-27T01:36:37.997Z,1009.4
2019-06-27T01:37:39.345Z,1009.5
2019-06-27T01:38:40.721Z,1009.5
2019-06-27T01:39:42.085Z,1009.5
2019-06-27T01:40:43.444Z,1009.5
2019-06-27T01:41:44.870Z,1009.5
2019-06-27T01:42:46.195Z,1009.6
2019-06-27T01:43:47.550Z,1009.6
2019-06-27T01:44:48.915Z,1009.6
2019-06-27T01:45:50.275Z,1009.6
2019-06-27T01:46:51.659Z,1009.6
2019-06-27T01:47:53.061Z,1009.6
2019-06-27T01:48:54.415Z,1009.6
2019-06-27T01:49:55.777Z,1009.6
2019-06-27T01:50:57.137Z,1009.6
2019-06-27T01:51:58.497Z,1009.6
2019-06-27T01:52:59.899Z,1009.6
2019-06-27T01:54:01.281Z,1009.7
2019-06-27T01:55:02.616Z,1009.7
2019-06-27T01:56:03.992Z,1009.7
2019-06-27T01:57:05.351Z,1009.7
2019-06-27T01:58:06.740Z,1009.6
2019-06-27T01:59:08.094Z,1009.6
2019-06-27T02:00:09.457Z,1009.6
2019-06-27T02:01:10.821Z,1009.6
2019-06-27T02:02:12.187Z,1009.6
2019-06-27T02:03:13.550Z,1009.6
2019-06-27T02:04:14.915Z,1009.7
2019-06-27T02:05:16.283Z,1009.6
2019-06-27T02:06:17.641Z,1009.7
2019-06-27T02:07:19.093Z,1009.7
2019-06-27T02:08:20.332Z,1009.7
2019-06-27T02:09:21.685Z,1009.8
2019-06-27T02:10:23.052Z,1009.7
2019-06-27T02:11:24.418Z,1009.8
2019-06-27T02:12:25.779Z,1009.8
2019-06-27T02:13:27.155Z,1009.8
2019-06-27T02:14:28.517Z,1009.8
2019-06-27T02:15:29.904Z,1009.8
2019-06-27T02:16:31.274Z,1009.8
2019-06-27T02:17:32.644Z,1009.8
2019-06-27T02:18:34.012Z,1009.7
2019-06-27T02:19:35.371Z,1009.8
2019-06-27T02:20:36.736Z,1009.8
2019-06-27T02:21:38.104Z,1009.8
2019-06-27T02:22:39.465Z,1009.8
2019-06-27T02:23:40.834Z,1009.8
2019-06-27T02:24:42.214Z,1009.8
2019-06-27T02:25:43.569Z,1009.8
2019-06-27T02:26:44.950Z,1009.8
2019-06-27T02:28:02.179Z,1009.8
2019-06-27T02:28:47.640Z,1009.8
2019-06-27T02:29:49.016Z,1009.8
2019-06-27T02:30:50.376Z,1009.9
2019-06-27T02:31:51.762Z,1009.9
2019-06-27T02:32:53.132Z,1009.9
2019-06-27T02:33:54.501Z,1009.8
2019-06-27T02:34:55.862Z,1009.8
2019-06-27T02:35:57.218Z,1009.8
2019-06-27T02:36:58.599Z,1009.9
2019-06-27T02:37:59.970Z,1009.9
2019-06-27T02:39:01.331Z,1009.9
2019-06-27T02:40:02.693Z,1009.9
2019-06-27T02:41:04.067Z,1009.9
2019-06-27T02:42:05.885Z,1009.9
2019-06-27T02:43:07.242Z,1009.9
2019-06-27T02:44:08.598Z,1009.9
2019-06-27T02:45:10.001Z,1009.9
2019-06-27T02:46:11.376Z,1009.9
2019-06-27T02:47:12.734Z,1009.9
2019-06-27T02:48:14.097Z,1009.9
2019-06-27T02:49:15.460Z,1009.9
2019-06-27T02:50:16.852Z,1009.9
2019-06-27T02:51:18.214Z,1009.9
2019-06-27T02:52:19.571Z,1009.9
2019-06-27T02:53:20.937Z,1009.9
2019-06-27T02:54:22.311Z,1009.9
2019-06-27T02:55:23.670Z,1009.9
2019-06-27T02:56:25.033Z,1009.9
2019-06-27T02:57:26.399Z,1009.9
2019-06-27T02:58:31.808Z,1009.9
2019-06-27T02:59:29.213Z,1009.9
2019-06-27T03:00:30.576Z,1009.9
2019-06-27T03:01:31.934Z,1009.9
2019-06-27T03:02:33.296Z,1009.9
2019-06-27T03:03:34.663Z,1009.9
2019-06-27T03:04:36.039Z,1009.9
2019-06-27T03:05:37.393Z,1009.9
2019-06-27T03:06:38.772Z,1009.9
2019-06-27T03:07:40.135Z,1009.8
2019-06-27T03:08:41.502Z,1009.9
2019-06-27T03:09:42.886Z,1009.9
2019-06-27T03:10:44.251Z,1009.9
2019-06-27T03:11:45.618Z,1009.9
2019-06-27T03:12:46.993Z,1009.9
2019-06-27T03:13:48.355Z,1009.9
2019-06-27T03:14:49.711Z,1009.9
2019-06-27T03:15:51.086Z,1009.9
2019-06-27T03:16:52.450Z,1009.9
2019-06-27T03:17:53.812Z,1009.9
2019-06-27T03:18:55.194Z,1009.9
2019-06-27T03:19:56.564Z,1009.9
2019-06-27T03:20:57.937Z,1010.0
2019-06-27T03:21:59.297Z,1010.0
2019-06-27T03:23:23.184Z,1010.0
2019-06-27T03:24:24.543Z,1010.0
2019-06-27T03:25:25.925Z,1010.0
2019-06-27T03:26:27.309Z,1010.0
2019-06-27T03:27:28.666Z,1010.0
2019-06-27T03:28:50.049Z,1010.0
2019-06-27T03:29:31.362Z,1010.0
2019-06-27T03:30:32.741Z,1010.0
2019-06-27T03:31:34.101Z,1010.0
2019-06-27T03:32:35.477Z,1010.0
2019-06-27T03:33:36.851Z,1010.0
2019-06-27T03:34:38.208Z,1010.0
2019-06-27T03:35:39.569Z,1010.0
2019-06-27T03:36:40.962Z,1010.0
2019-06-27T03:37:42.347Z,1010.0
2019-06-27T03:38:43.707Z,1010.0
2019-06-27T03:39:45.079Z,1010.0
2019-06-27T03:40:46.441Z,1010.0
2019-06-27T03:41:47.806Z,1010.0
2019-06-27T03:42:49.181Z,1010.0
2019-06-27T03:43:50.581Z,1010.0
2019-06-27T03:44:51.963Z,1010.0
2019-06-27T03:45:53.335Z,1010.0
2019-06-27T03:46:54.717Z,1010.0
2019-06-27T03:47:56.080Z,1010.0
2019-06-27T03:48:57.444Z,1010.0
2019-06-27T03:49:58.806Z,1010.0
2019-06-27T03:51:00.192Z,1010.1
2019-06-27T03:52:01.568Z,1010.1
2019-06-27T03:53:02.926Z,1010.1
2019-06-27T03:54:04.305Z,1010.1
2019-06-27T03:55:05.701Z,1010.1
2019-06-27T03:56:07.092Z,1010.1
2019-06-27T03:57:08.445Z,1010.2
2019-06-27T03:58:09.820Z,1010.2
2019-06-27T03:59:13.451Z,1010.2
2019-06-27T04:00:12.516Z,1010.2
2019-06-27T04:01:13.884Z,1010.2
2019-06-27T04:02:15.257Z,1010.2
2019-06-27T04:03:16.630Z,1010.1
2019-06-27T04:04:18.001Z,1010.2
2019-06-27T04:05:19.407Z,1010.2
2019-06-27T04:06:20.763Z,1010.1
2019-06-27T04:07:22.119Z,1010.2
2019-06-27T04:08:23.487Z,1010.2
2019-06-27T04:09:24.860Z,1010.3
2019-06-27T04:10:26.236Z,1010.2
2019-06-27T04:11:27.609Z,1010.3
2019-06-27T04:12:28.976Z,1010.2
2019-06-27T04:13:30.352Z,1010.2
2019-06-27T04:14:31.722Z,1010.2
2019-06-27T04:15:33.097Z,1010.2
2019-06-27T04:16:34.462Z,1010.2
2019-06-27T04:17:35.837Z,1010.2
2019-06-27T04:18:37.211Z,1010.2
2019-06-27T04:19:38.573Z,1010.2
2019-06-27T04:20:39.979Z,1010.2
2019-06-27T04:21:41.317Z,1010.2
2019-06-27T04:22:42.682Z,1010.2
2019-06-27T04:23:44.054Z,1010.2
2019-06-27T04:24:45.458Z,1010.2
2019-06-27T04:25:46.829Z,1010.2
2019-06-27T04:26:48.199Z,1010.3
2019-06-27T04:27:49.559Z,1010.3
2019-06-27T04:28:50.948Z,1010.3
2019-06-27T04:29:52.349Z,1010.3
2019-06-27T04:30:53.721Z,1010.3
2019-06-27T04:31:55.098Z,1010.3
2019-06-27T04:32:56.474Z,1010.3
2019-06-27T04:33:57.852Z,1010.4
2019-06-27T04:34:59.226Z,1010.4
2019-06-27T04:36:00.635Z,1010.4
2019-06-27T04:37:01.992Z,1010.4
2019-06-27T04:38:03.409Z,1010.5
2019-06-27T04:39:04.772Z,1010.4
2019-06-27T04:40:06.155Z,1010.5
2019-06-27T04:41:07.523Z,1010.4
2019-06-27T04:42:09.040Z,1010.4
2019-06-27T04:43:10.364Z,1010.5
2019-06-27T04:44:11.748Z,1010.5
2019-06-27T04:45:13.155Z,1010.5
2019-06-27T04:46:14.623Z,1010.5
2019-06-27T04:47:15.895Z,1010.5
2019-06-27T04:48:17.278Z,1010.5
2019-06-27T04:49:18.649Z,1010.5
2019-06-27T04:50:20.024Z,1010.5
2019-06-27T04:51:21.402Z,1010.5
2019-06-27T04:52:22.765Z,1010.5
2019-06-27T04:53:24.134Z,1010.4
2019-06-27T04:54:25.550Z,1010.4
2019-06-27T04:55:26.897Z,1010.4
2019-06-27T04:56:28.244Z,1010.4
2019-06-27T04:57:29.608Z,1010.4
2019-06-27T04:58:31.005Z,1010.4
2019-06-27T04:59:51.496Z,1010.4
2019-06-27T05:00:33.703Z,1010.4
2019-06-27T05:01:35.075Z,1010.4
2019-06-27T05:02:36.470Z,1010.4
2019-06-27T05:03:37.816Z,1010.5
2019-06-27T05:04:39.183Z,1010.5
2019-06-27T05:05:40.568Z,1010.5
2019-06-27T05:06:41.949Z,1010.5
2019-06-27T05:07:43.325Z,1010.5
2019-06-27T05:08:44.698Z,1010.5
2019-06-27T05:09:46.106Z,1010.5
2019-06-27T05:10:47.477Z,1010.5
2019-06-27T05:11:48.845Z,1010.6
2019-06-27T05:12:50.219Z,1010.5
2019-06-27T05:13:51.626Z,1010.5
2019-06-27T05:14:52.988Z,1010.6
2019-06-27T05:15:54.378Z,1010.6
2019-06-27T05:16:55.748Z,1010.6
2019-06-27T05:17:57.119Z,1010.6
2019-06-27T05:18:58.487Z,1010.6
2019-06-27T05:20:02.882Z,1010.7
2019-06-27T05:21:01.199Z,1010.7
2019-06-27T05:22:02.732Z,1010.6
2019-06-27T05:23:04.105Z,1010.7
2019-06-27T05:24:05.428Z,1010.7
2019-06-27T05:25:06.797Z,1010.7
2019-06-27T05:26:08.194Z,1010.7
2019-06-27T05:27:09.593Z,1010.7
2019-06-27T05:28:10.964Z,1010.7
2019-06-27T05:29:12.353Z,1010.8
2019-06-27T05:30:13.744Z,1010.8
2019-06-27T05:31:15.098Z,1010.8
2019-06-27T05:32:16.514Z,1010.7
2019-06-27T05:33:17.880Z,1010.8
2019-06-27T05:34:19.234Z,1010.8
2019-06-27T05:35:20.613Z,1010.8
2019-06-27T05:36:21.983Z,1010.8
2019-06-27T05:37:23.353Z,1010.9
2019-06-27T05:38:24.726Z,1010.9
2019-06-27T05:39:26.107Z,1011.0
2019-06-27T05:40:27.478Z,1011.0
2019-06-27T05:41:28.847Z,1011.0
2019-06-27T05:42:30.217Z,1011.1
2019-06-27T05:43:31.594Z,1011.1
2019-06-27T05:44:32.967Z,1011.2
2019-06-27T05:45:34.333Z,1011.2
2019-06-27T05:46:35.700Z,1011.3
2019-06-27T05:47:37.072Z,1011.1
2019-06-27T05:48:39.781Z,1011.1
2019-06-27T05:49:39.784Z,1011.1
2019-06-27T05:50:41.153Z,1011.3
2019-06-27T05:51:42.527Z,1011.3
2019-06-27T05:52:43.893Z,1011.3
2019-06-27T05:53:45.818Z,1011.3
2019-06-27T05:54:46.617Z,1011.2
2019-06-27T05:55:47.989Z,1011.3
2019-06-27T05:56:49.359Z,1011.4
2019-06-27T05:57:50.751Z,1011.3
2019-06-27T05:58:52.370Z,1011.4
2019-06-27T05:59:53.476Z,1011.3
2019-06-27T06:00:54.860Z,1011.5
2019-06-27T06:01:56.232Z,1011.4
2019-06-27T06:02:57.608Z,1011.4
2019-06-27T06:03:58.987Z,1011.4
2019-06-27T06:05:00.363Z,1011.4
2019-06-27T06:06:01.754Z,1011.4
2019-06-27T06:07:03.177Z,1011.5
2019-06-27T06:08:04.512Z,1011.4
2019-06-27T06:09:05.878Z,1011.4
2019-06-27T06:10:07.258Z,1011.4
2019-06-27T06:11:08.634Z,1011.4
2019-06-27T06:12:10.017Z,1011.4
2019-06-27T06:13:11.379Z,1011.4
2019-06-27T06:14:12.758Z,1011.5
2019-06-27T06:15:14.127Z,1011.5
2019-06-27T06:16:15.505Z,1011.5
2019-06-27T06:17:16.887Z,1011.6
2019-06-27T06:18:18.267Z,1011.6
2019-06-27T06:19:19.631Z,1011.5
2019-06-27T06:20:21.006Z,1011.6
2019-06-27T06:21:22.386Z,1011.6
2019-06-27T06:22:23.760Z,1011.6
2019-06-27T06:23:25.150Z,1011.7
2019-06-27T06:24:26.517Z,1011.7
2019-06-27T06:25:27.899Z,1011.7
2019-06-27T06:26:29.290Z,1011.6
2019-06-27T06:27:30.658Z,1011.7
2019-06-27T06:28:32.029Z,1011.7
2019-06-27T06:29:33.410Z,1011.8
2019-06-27T06:30:44.313Z,1011.7
2019-06-27T06:31:36.108Z,1011.7
2019-06-27T06:32:37.484Z,1011.8
2019-06-27T06:33:38.870Z,1011.7
2019-06-27T06:34:40.274Z,1011.8
2019-06-27T06:35:41.639Z,1011.8
2019-06-27T06:36:43.014Z,1011.8
2019-06-27T06:37:44.393Z,1011.8
2019-06-27T06:38:45.771Z,1011.9
2019-06-27T06:39:47.212Z,1011.8
2019-06-27T06:40:48.558Z,1011.8
2019-06-27T06:41:49.936Z,1011.9
2019-06-27T06:42:51.320Z,1011.8
2019-06-27T06:43:52.700Z,1011.8
2019-06-27T06:44:54.074Z,1011.9
2019-06-27T06:45:55.449Z,1011.9
2019-06-27T06:46:56.824Z,1011.9
2019-06-27T06:47:58.194Z,1011.9
2019-06-27T06:48:59.579Z,1011.9
2019-06-27T06:50:00.975Z,1012.0
2019-06-27T06:51:02.355Z,1011.9
2019-06-27T06:52:03.743Z,1011.9
2019-06-27T06:53:05.113Z,1012.0
2019-06-27T06:54:06.519Z,1012.0
2019-06-27T06:55:07.897Z,1012.0
2019-06-27T06:56:09.364Z,1012.0
2019-06-27T06:57:10.620Z,1011.9
2019-06-27T06:58:12.024Z,1012.0
2019-06-27T06:59:13.398Z,1012.1
2019-06-27T07:00:14.780Z,1012.1
2019-06-27T07:01:16.158Z,1012.1
2019-06-27T07:02:17.544Z,1012.1
2019-06-27T07:03:18.924Z,1012.1
2019-06-27T07:04:20.307Z,1012.1
2019-06-27T07:05:21.690Z,1012.1
2019-06-27T07:06:23.065Z,1012.2
2019-06-27T07:07:24.445Z,1012.2
2019-06-27T07:08:25.822Z,1012.2
2019-06-27T07:09:27.215Z,1012.3
2019-06-27T07:10:28.588Z,1012.3
2019-06-27T07:11:29.973Z,1012.2
2019-06-27T07:12:31.344Z,1012.3
2019-06-27T07:13:32.726Z,1012.3
2019-06-27T07:14:34.111Z,1012.3
2019-06-27T07:15:35.479Z,1012.3
2019-06-27T07:16:36.855Z,1012.3
2019-06-27T07:17:38.269Z,1012.3
2019-06-27T07:18:39.645Z,1012.4
2019-06-27T07:19:41.032Z,1012.4
2019-06-27T07:20:42.433Z,1012.4
2019-06-27T07:21:43.812Z,1012.4
2019-06-27T07:22:45.180Z,1012.4
2019-06-27T07:23:46.571Z,1012.5
2019-06-27T07:24:47.949Z,1012.6
2019-06-27T07:25:49.363Z,1012.6
2019-06-27T07:26:50.767Z,1012.6
2019-06-27T07:27:52.074Z,1012.5
2019-06-27T07:28:53.499Z,1012.5
2019-06-27T07:29:54.834Z,1012.6
2019-06-27T07:30:56.209Z,1012.6
2019-06-27T07:31:57.579Z,1012.5
2019-06-27T07:32:58.974Z,1012.5
2019-06-27T07:34:00.341Z,1012.5
2019-06-27T07:35:01.731Z,1012.5
2019-06-27T07:36:03.100Z,1012.6
2019-06-27T07:37:04.493Z,1012.5
2019-06-27T07:38:05.889Z,1012.5
2019-06-27T07:39:07.253Z,1012.5
2019-06-27T07:40:08.630Z,1012.6
2019-06-27T07:41:10.025Z,1012.6
2019-06-27T07:42:11.407Z,1012.6
2019-06-27T07:43:12.781Z,1012.6
2019-06-27T07:44:14.162Z,1012.7
2019-06-27T07:45:15.554Z,1012.6
2019-06-27T07:46:25.255Z,1012.7
2019-06-27T07:47:18.311Z,1012.7
2019-06-27T07:48:19.682Z,1012.7
2019-06-27T07:49:21.074Z,1012.8
2019-06-27T07:50:22.526Z,1012.8
2019-06-27T07:51:23.899Z,1012.7
2019-06-27T07:52:25.283Z,1012.8
2019-06-27T07:53:26.761Z,1012.8
2019-06-27T07:54:28.096Z,1012.7
2019-06-27T07:55:29.482Z,1012.8
2019-06-27T07:56:30.878Z,1012.7
2019-06-27T07:57:32.260Z,1012.8
2019-06-27T07:58:33.645Z,1012.8
2019-06-27T07:59:35.036Z,1012.9
2019-06-27T08:00:36.419Z,1012.9
2019-06-27T08:01:37.797Z,1012.8
2019-06-27T08:02:39.176Z,1012.9
2019-06-27T08:03:40.561Z,1012.9
2019-06-27T08:04:41.946Z,1012.9
2019-06-27T08:05:43.321Z,1013.0
2019-06-27T08:06:44.711Z,1013.0
2019-06-27T08:07:46.098Z,1013.0
2019-06-27T08:08:47.474Z,1013.1
2019-06-27T08:09:48.887Z,1013.3
2019-06-27T08:10:50.270Z,1013.2
2019-06-27T08:11:51.666Z,1013.2
2019-06-27T08:12:53.047Z,1013.4
2019-06-27T08:13:54.424Z,1013.4
2019-06-27T08:14:55.813Z,1013.2
2019-06-27T08:15:57.202Z,1013.2
2019-06-27T08:16:58.591Z,1013.3
2019-06-27T08:17:59.973Z,1013.3
2019-06-27T08:19:01.348Z,1013.3
2019-06-27T08:20:02.731Z,1013.3
2019-06-27T08:21:04.107Z,1013.3
2019-06-27T08:22:05.500Z,1013.3
2019-06-27T08:23:06.891Z,1013.3
2019-06-27T08:24:08.277Z,1013.2
2019-06-27T08:25:09.651Z,1013.2
2019-06-27T08:26:11.037Z,1013.2
2019-06-27T08:27:12.421Z,1013.3
2019-06-27T08:28:13.796Z,1013.3
2019-06-27T08:29:15.193Z,1013.2
2019-06-27T08:30:16.615Z,1013.3
2019-06-27T08:31:17.995Z,1013.3
2019-06-27T08:32:19.390Z,1013.4
2019-06-27T08:33:20.770Z,1013.2
2019-06-27T08:34:22.148Z,1012.1
2019-06-27T08:35:23.530Z,1013.4
2019-06-27T08:36:24.911Z,1013.3
2019-06-27T08:37:26.299Z,1013.2
2019-06-27T08:38:27.704Z,1013.3
2019-06-27T08:39:29.082Z,1013.2
2019-06-27T08:40:30.465Z,1012.6
2019-06-27T08:41:31.876Z,1012.5
2019-06-27T08:42:33.261Z,1013.3
2019-06-27T08:43:34.646Z,1013.0
2019-06-27T08:44:36.030Z,1013.3
2019-06-27T08:45:37.410Z,1013.2
2019-06-27T08:46:38.798Z,1013.3
2019-06-27T08:47:40.173Z,1013.2
2019-06-27T08:48:41.555Z,1013.5
2019-06-27T08:49:42.936Z,1011.9
2019-06-27T08:50:44.318Z,1013.3
2019-06-27T08:51:45.711Z,1013.3
2019-06-27T08:52:47.095Z,1013.4
2019-06-27T08:53:48.475Z,1013.4
2019-06-27T08:54:49.857Z,1013.1
2019-06-27T08:55:51.251Z,1013.2
2019-06-27T08:56:52.630Z,1011.8
2019-06-27T08:57:54.013Z,1013.6
2019-06-27T08:58:55.401Z,1013.1
2019-06-27T08:59:56.793Z,1013.4
2019-06-27T09:00:58.165Z,1013.2
2019-06-27T09:02:08.346Z,1013.6
2019-06-27T09:03:00.930Z,1013.6
2019-06-27T09:04:02.342Z,1013.8
2019-06-27T09:05:03.735Z,1013.8
2019-06-27T09:06:05.109Z,1013.7
2019-06-27T09:07:06.499Z,1013.8
2019-06-27T09:08:07.950Z,1013.8
2019-06-27T09:09:09.274Z,1013.9
2019-06-27T09:10:10.657Z,1013.9
2019-06-27T09:11:12.037Z,1014.0
2019-06-27T09:12:13.422Z,1013.8
2019-06-27T09:13:14.818Z,1013.9
2019-06-27T09:14:16.194Z,1013.9
2019-06-27T09:15:17.578Z,1013.7
2019-06-27T09:16:18.964Z,1013.7
2019-06-27T09:17:20.352Z,1013.7
2019-06-27T09:18:21.740Z,1013.6
2019-06-27T09:19:23.122Z,1013.7
2019-06-27T09:20:24.654Z,1013.7
2019-06-27T09:21:25.874Z,1013.2
2019-06-27T09:22:27.251Z,1013.2
2019-06-27T09:23:57.723Z,1012.5
2019-06-27T09:24:59.100Z,1013.4
2019-06-27T09:26:00.503Z,1013.1
2019-06-27T09:27:01.882Z,1013.2
2019-06-27T09:28:03.282Z,1013.3
2019-06-27T09:29:04.660Z,1011.7
2019-06-27T09:30:06.037Z,1013.1
2019-06-27T09:31:07.425Z,1012.8
2019-06-27T09:32:20.978Z,1012.5
2019-06-27T09:33:10.157Z,1012.9
2019-06-27T09:34:11.562Z,1012.6
2019-06-27T09:35:12.925Z,1012.9
2019-06-27T09:36:14.344Z,1012.9
2019-06-27T09:37:15.727Z,1012.8
2019-06-27T09:38:17.127Z,1012.8
2019-06-27T09:39:18.516Z,1012.7
2019-06-27T09:40:19.893Z,1012.7
2019-06-27T09:41:21.287Z,1012.9
2019-06-27T09:42:22.801Z,1012.7
2019-06-27T09:43:24.178Z,1012.8
2019-06-27T09:44:25.566Z,1012.7
2019-06-27T09:45:26.956Z,1012.4
2019-06-27T09:46:28.338Z,1011.8
2019-06-27T09:47:29.734Z,1011.8
2019-06-27T09:48:31.122Z,1011.8
2019-06-27T09:49:32.549Z,1011.8
2019-06-27T09:50:33.932Z,1012.4
2019-06-27T09:51:35.316Z,1012.4
2019-06-27T09:52:36.700Z,1012.2
2019-06-27T09:53:38.099Z,1012.2
2019-06-27T09:54:39.484Z,1012.3
2019-06-27T09:55:40.868Z,1012.2
2019-06-27T09:56:42.286Z,1012.2
2019-06-27T09:57:43.671Z,1012.2
2019-06-27T09:58:45.058Z,1012.1
2019-06-27T09:59:46.441Z,1012.2
2019-06-27T10:00:47.828Z,1012.2
2019-06-27T10:01:49.248Z,1012.1
2019-06-27T10:02:50.669Z,1012.0
2019-06-27T10:03:52.061Z,1011.9
2019-06-27T10:04:53.446Z,1011.9
2019-06-27T10:05:54.825Z,1011.8
2019-06-27T10:06:56.220Z,1011.8
2019-06-27T10:07:57.608Z,1011.8
2019-06-27T10:08:59.043Z,1011.9
2019-06-27T10:10:00.379Z,1011.9
2019-06-27T10:11:01.784Z,1011.9
2019-06-27T10:12:03.238Z,1011.9
2019-06-27T10:13:04.638Z,1011.9
2019-06-27T10:14:06.017Z,1011.9
2019-06-27T10:15:07.411Z,1011.7
2019-06-27T10:16:08.812Z,1011.8
2019-06-27T10:17:10.202Z,1011.8
2019-06-27T10:18:11.599Z,1011.7
2019-06-27T10:19:12.975Z,1011.8
2019-06-27T10:20:14.364Z,1011.8
2019-06-27T10:21:15.747Z,1011.8
2019-06-27T10:22:17.161Z,1011.8
2019-06-27T10:23:18.533Z,1011.7
2019-06-27T10:24:19.933Z,1011.5
2019-06-27T10:25:21.328Z,1011.7
2019-06-27T10:26:22.729Z,1011.8
2019-06-27T10:27:24.096Z,1011.7
2019-06-27T10:28:25.494Z,1011.7
2019-06-27T10:29:26.908Z,1011.8
2019-06-27T10:30:28.312Z,1011.7
2019-06-27T10:31:29.721Z,1011.5
2019-06-27T10:32:31.088Z,1011.6
2019-06-27T10:33:32.479Z,1011.7
2019-06-27T10:34:33.869Z,1011.7
2019-06-27T10:35:35.258Z,1011.7
2019-06-27T10:36:38.452Z,1011.4
2019-06-27T10:37:38.001Z,1011.6
2019-06-27T10:38:39.379Z,1011.6
2019-06-27T10:39:40.758Z,1011.6
2019-06-27T10:40:42.154Z,1011.7
2019-06-27T10:41:43.546Z,1011.7
2019-06-27T10:42:44.937Z,1011.8
2019-06-27T10:43:46.328Z,1011.5
2019-06-27T10:44:47.719Z,1011.6
2019-06-27T10:45:49.112Z,1011.7
2019-06-27T10:46:50.496Z,1011.6
2019-06-27T10:47:51.897Z,1011.6
2019-06-27T10:48:53.282Z,1011.7
2019-06-27T10:49:54.680Z,1011.6
2019-06-27T10:50:56.076Z,1011.5
2019-06-27T10:51:57.481Z,1011.6
2019-06-27T10:52:58.925Z,1011.6
2019-06-27T10:54:00.339Z,1011.7
2019-06-27T10:55:01.748Z,1011.5
2019-06-27T10:56:03.220Z,1011.6
2019-06-27T10:57:04.614Z,1011.6
2019-06-27T10:58:05.984Z,1011.5
2019-06-27T10:59:07.375Z,1011.5
2019-06-27T11:00:08.872Z,1011.6
2019-06-27T11:01:10.113Z,1011.6
2019-06-27T11:02:11.501Z,1011.5
2019-06-27T11:03:16.137Z,1011.5
2019-06-27T11:04:14.241Z,1011.6
2019-06-27T11:05:15.627Z,1011.5
2019-06-27T11:06:17.018Z,1011.6
2019-06-27T11:07:18.410Z,1011.4
2019-06-27T11:08:19.795Z,1011.4
2019-06-27T11:09:21.193Z,1011.5
2019-06-27T11:10:22.590Z,1011.5
2019-06-27T11:11:24.006Z,1011.4
2019-06-27T11:12:25.369Z,1011.3
2019-06-27T11:13:26.744Z,1011.4
2019-06-27T11:14:28.134Z,1011.5
2019-06-27T11:15:29.523Z,1011.3
2019-06-27T11:16:30.915Z,1011.4
2019-06-27T11:17:32.305Z,1011.3
2019-06-27T11:18:33.706Z,1011.3
2019-06-27T11:19:51.190Z,1011.4
2019-06-27T11:20:36.454Z,1011.3
2019-06-27T11:21:37.839Z,1011.5
2019-06-27T11:22:39.250Z,1011.3
2019-06-27T11:23:40.647Z,1011.3
2019-06-27T11:24:42.035Z,1011.3
2019-06-27T11:25:43.402Z,1011.3
2019-06-27T11:26:44.799Z,1011.3
2019-06-27T11:27:46.196Z,1011.3
2019-06-27T11:28:47.589Z,1011.2
2019-06-27T11:29:48.984Z,1011.2
2019-06-27T11:30:50.372Z,1011.2
2019-06-27T11:31:51.760Z,1011.2
2019-06-27T11:32:53.150Z,1011.2
2019-06-27T11:33:54.545Z,1011.2
2019-06-27T11:34:55.954Z,1011.2
2019-06-27T11:35:57.346Z,1011.3
2019-06-27T11:36:58.734Z,1011.3
2019-06-27T11:38:00.123Z,1011.3
2019-06-27T11:39:01.599Z,1011.2
2019-06-27T11:40:02.966Z,1011.2
2019-06-27T11:41:04.356Z,1011.2
2019-06-27T11:42:05.752Z,1011.2
2019-06-27T11:43:07.144Z,1011.3
2019-06-27T11:44:08.534Z,1011.2
2019-06-27T11:45:09.947Z,1011.0
2019-06-27T11:46:11.323Z,1011.2
2019-06-27T11:47:12.743Z,1011.2
2019-06-27T11:48:14.095Z,1011.3
2019-06-27T11:49:15.494Z,1011.2
2019-06-27T11:50:16.919Z,1011.1
2019-06-27T11:51:18.319Z,1011.1
2019-06-27T11:52:19.719Z,1011.2
2019-06-27T11:53:21.106Z,1011.1
2019-06-27T11:54:22.490Z,1011.1
2019-06-27T11:55:23.882Z,1011.3
2019-06-27T11:56:25.268Z,1011.2
2019-06-27T11:57:26.659Z,1011.3
2019-06-27T11:58:28.069Z,1011.1
2019-06-27T11:59:29.481Z,1011.1
2019-06-27T12:00:30.874Z,1011.2
2019-06-27T12:01:32.254Z,1011.1
2019-06-27T12:02:33.652Z,1011.2
2019-06-27T12:03:48.252Z,1011.1
2019-06-27T12:04:36.401Z,1011.1
2019-06-27T12:05:37.778Z,1011.0
2019-06-27T12:06:39.234Z,1011.2
2019-06-27T12:07:40.556Z,1011.2
2019-06-27T12:08:41.943Z,1011.2
2019-06-27T12:09:43.330Z,1011.2
2019-06-27T12:10:44.710Z,1011.2
2019-06-27T12:11:46.100Z,1011.3
2019-06-27T12:12:47.533Z,1011.0
2019-06-27T12:13:48.937Z,1011.2
2019-06-27T12:14:50.323Z,1011.0
2019-06-27T12:15:51.839Z,1011.1
2019-06-27T12:16:53.077Z,1011.1
2019-06-27T12:17:54.466Z,1011.2
2019-06-27T12:18:55.854Z,1011.2
2019-06-27T12:19:57.252Z,1011.2
2019-06-27T12:20:58.653Z,1011.1
2019-06-27T12:22:00.040Z,1011.1
2019-06-27T12:23:01.434Z,1011.1
2019-06-27T12:24:02.821Z,1011.1
2019-06-27T12:25:04.220Z,1010.9
2019-06-27T12:26:05.633Z,1011.0
2019-06-27T12:27:07.026Z,1011.0
2019-06-27T12:28:08.411Z,1011.1
2019-06-27T12:29:09.800Z,1010.9
2019-06-27T12:30:11.191Z,1011.0
2019-06-27T12:31:20.567Z,1010.9
2019-06-27T12:32:13.945Z,1011.0
2019-06-27T12:33:15.334Z,1011.0
2019-06-27T12:34:16.735Z,1011.0
2019-06-27T12:35:18.125Z,1010.8
2019-06-27T12:36:19.506Z,1010.9
2019-06-27T12:37:20.894Z,1011.0
2019-06-27T12:38:22.290Z,1010.9
2019-06-27T12:39:23.674Z,1010.8
2019-06-27T12:40:25.071Z,1010.8
2019-06-27T12:41:26.453Z,1010.9
2019-06-27T12:42:32.651Z,1011.0
2019-06-27T12:43:30.343Z,1010.9
2019-06-27T12:44:31.729Z,1011.0
2019-06-27T12:45:33.120Z,1010.8
2019-06-27T12:46:34.534Z,1010.9